Commit Graph

2978 Commits

Author SHA1 Message Date
David Rose c37f62fd9a add find_child 2003-07-22 01:49:23 +00:00
David Rose 06808bf5f2 define matrix_components 2003-07-22 01:49:06 +00:00
David Rose ba4ec85c60 add set_vertex_membership, make map accessors non-inline 2003-07-21 21:04:46 +00:00
David Rose 397b886289 add steal_vrefs 2003-07-20 15:50:00 +00:00
David Rose 56344ed76b text now uses zlib 2003-07-18 17:22:56 +00:00
David Rose 090b895cc1 compile in default font even if freetype is not available 2003-07-18 17:05:13 +00:00
David Rose 6fc94e9f03 support reading and writing bam streams instead of just files 2003-07-18 17:04:43 +00:00
David Rose 979280544c restore format from bam 2003-07-18 00:43:35 +00:00
Mark Mine a2973a6558 Updated info on Perl 2003-07-18 00:07:52 +00:00
David Rose 2113dfe4d6 setAlphaScale moves down into C++ 2003-07-17 22:22:32 +00:00
David Rose 34108a2221 GSG_VERBOSE 2003-07-17 19:59:10 +00:00
David Rose 15feb555b3 gcc3.2 bug 2003-07-17 19:58:59 +00:00
David Rose e51dfb192f shift-W in pview opens new window on same gsg 2003-07-17 18:17:24 +00:00
Dave Schuyler acc6620779 mostly debug output changes 2003-07-16 01:07:15 +00:00
David Rose 91451f3f80 add yield-timeslice 2003-07-16 00:39:05 +00:00
David Rose 0b96f7c651 be more aggressive in bypassing flakey proxies 2003-07-14 23:15:48 +00:00
David Rose 80a5a04597 default proxy spec is empty 2003-07-14 18:30:56 +00:00
David Rose 80e565f622 robustify and regularize proxy fallback attempts 2003-07-14 17:55:02 +00:00
Dave Schuyler afe8501ff7 added contact_vector 2003-07-12 01:24:35 +00:00
Dave Schuyler 05ac2f527e changed function name to reset_position 2003-07-11 23:10:39 +00:00
Dave Schuyler 4e83b2ae04 *** empty log message *** 2003-07-11 23:04:12 +00:00
Dave Schuyler 53a3c76a2a percent_used to fraction_used 2003-07-11 23:02:58 +00:00
Dave Schuyler 7946536511 hooking physics to collisions 2003-07-11 22:59:42 +00:00
Dave Schuyler 73d21894bf part of the physics changes 2003-07-11 22:47:41 +00:00
Asad M. Zaman 674520f630 added rawdata mode for textures 2003-07-10 16:23:14 +00:00
Asad M. Zaman f7569695f8 added new minor version 5 2003-07-10 01:06:08 +00:00
David Rose 720fb4ac63 prebuild-bison 2003-07-08 01:20:40 +00:00
David Rose ea1b5a99f6 don't introduce matrix errors from the pusher 2003-07-08 01:03:49 +00:00
David Rose f55e4d2e1e don't introduce matrix errors from the lifter 2003-07-07 23:41:20 +00:00
David Rose 3ea371a282 by default, don't think keys are held down when window focus is lost. 2003-07-07 21:09:48 +00:00
David Rose 34796b00b9 track keypresses better on setfocus/killfocus 2003-07-05 21:23:56 +00:00
David Rose a2c3d8143f Jesse's fixes to support building Panda on VC6 2003-07-03 20:50:05 +00:00
David Rose a8a74ed9d5 log more about tracking key state between window defocus 2003-07-03 20:28:19 +00:00
David Rose 0c7e048d28 save self pointer during stash 2003-07-03 00:32:32 +00:00
David Rose 2d221eadb2 standard order should reflect temp-hpr-fix 2003-07-02 22:38:02 +00:00
David Rose 08ae030917 oops 2003-07-02 21:43:42 +00:00
David Rose 05e6e05c4d forced-roll flavor of decompose_matrix now has no default cs 2003-07-02 21:42:51 +00:00
David Rose 439b8b4546 export temp_hpr_fix from dll 2003-07-02 21:41:04 +00:00
David Rose 8381136b9a more polish on temp_hpr_fix and different coordinate systems 2003-07-02 21:30:42 +00:00
David Rose 1bc836605f debug messages 2003-07-02 19:30:54 +00:00
David Rose 90918d5f6c trim extra newlines from windows error message 2003-07-02 17:00:19 +00:00
David Rose 3bd9146030 trim extra newlines from windows error message 2003-07-02 16:48:22 +00:00
David Rose b15a2ae9fc fix gcc 3.2 crash 2003-07-02 16:48:05 +00:00
David Rose 714a109faf add some more cheap options 2003-06-29 19:06:27 +00:00
David Rose 5fee00c7df tolerate billboards under a singular transform 2003-06-27 23:08:21 +00:00
David Rose 8d70eeb6ab minor tweaks for new scene graph stuff 2003-06-27 22:55:29 +00:00
David Rose 2e38ab36eb add PGFrameStyle::set_texture 2003-06-25 20:35:02 +00:00
David Rose e5995f0ecf should include advapi32.lib for registry operations 2003-06-24 19:00:46 +00:00
Dave Schuyler de2502a7b0 string change 2003-06-21 04:22:11 +00:00
Dave Schuyler e647dd72d7 minor changes 2003-06-20 05:28:23 +00:00